Sliač, Slovensko

03:35 PM CEST dna 27 Apríl, 2015 (GMT +0200)
Badin | | Change Station
CLOSE
Current Station
Personal Weather Stations
Location: Badin, Banskobystricky kraj
Nad. výška:: 1306 ft
Najbližšie meteo stanice

Elev 1306 ft 48.67 °N, 19.12 °E | Updated 3 seconds ago

Clear
Jasno
69.4 °F
Feels Like 69.4 °F
N
13.0
Vietor meniaci sa Vietor from JJV
Gusts 17.0 mph

Dnes
High -- | Low -- °F
--% Chance of Precip.
Yesterday
High -- | Low -- °F
Precip. -- in
5:31 AM 7:51 PM
Pribúdajúci mesiac, 2. fáza, 65% visible
Tlak 29.68 in
Viditeľnosť -9999.0 mile
Oblačnost
Rosný bod 40 °F
Vlhkosť 34%
Rainfall 0.00 in
Výška snehu Not available.
UV 0.0 out of 12
Pollen Not available.
Air Quality Not available.
Flu Activity Not available.
METAR LZZI 271330Z 20008KT 130V260 CAVOK 22/09 Q1005

More Conditions Fewer Conditions

Tlak 29.68 in
Viditeľnosť -9999.0 mile
Oblačnost
Rosný bod 40 °F
Vlhkosť 34%
Rainfall 0.00 in
Výška snehu Not available.
UV 0.0 out of 12
Pollen Not available.
Air Quality Not available.
Flu Activity Not available.
METAR LZZI 271330Z 20008KT 130V260 CAVOK 22/09 Q1005

More Conditions Fewer Conditions

10-Day Weather Forecast

Almanac

Astronómia

Apr. 27, 2015 Východ Západ
Aktuálny čas
Civil Twilight
Nautical Twilight
Astronomical Twilight
Mesiac
Length Of Visible Light
Dĺžka dňa
Tomorrow will be .
, % of the Moon is Illuminated

Today's Extremes

Country Highs Country Lows

Community

WunderPhotos

Upload Photos

1,817,307 photos uploaded!

WunderBlogs® & News

Nearby

Air Quality

  Air Quality AQ Index Pollutant
Not available.

Výska snehu

Station Depth Nad. výška:

Aktivita zemetrasenia

Mesto Distance Mag. Time & Date
Minimum magnitude displayed is 2.5.

Coastal Water Temperatures

Miesto Teplota

Stations

Najbližšie meteo stanice

Station Location Temp Pocitová teplota Rosný bod Vlhkosť Vietor Precip. Elev Cas aktualizacie Type